createdAt,value
2017-12-04T00:00:00.744Z,6.10
2017-12-04T00:02:28.616Z,6.67
2017-12-04T00:04:56.532Z,6.10
2017-12-04T00:07:24.413Z,5.77
2017-12-04T00:09:52.293Z,8.38
2017-12-04T00:12:20.169Z,7.73
2017-12-04T00:14:48.036Z,6.07
2017-12-04T00:17:21.857Z,5.27
2017-12-04T00:19:49.711Z,6.00
2017-12-04T00:22:17.629Z,5.13
2017-12-04T00:24:45.505Z,5.60
2017-12-04T00:27:13.367Z,4.67
2017-12-04T00:29:41.271Z,5.40
2017-12-04T00:32:09.142Z,6.73
2017-12-04T00:34:36.993Z,4.47
2017-12-04T00:37:04.860Z,5.10
2017-12-04T00:39:32.690Z,3.63
2017-12-04T00:42:00.578Z,4.40
2017-12-04T00:44:28.427Z,4.53
2017-12-04T00:46:56.288Z,4.20
2017-12-04T00:49:24.169Z,4.40
2017-12-04T00:51:52.025Z,4.40
2017-12-04T00:54:19.861Z,4.93
2017-12-04T00:56:47.726Z,5.00
2017-12-04T00:59:15.588Z,3.97
2017-12-04T01:01:43.458Z,3.60
2017-12-04T01:04:11.293Z,5.50
2017-12-04T01:06:39.173Z,4.27
2017-12-04T01:09:07.051Z,3.90
2017-12-04T01:11:34.909Z,4.87
2017-12-04T01:14:02.763Z,4.00
2017-12-04T01:16:30.603Z,3.17
2017-12-04T01:18:58.464Z,3.93
2017-12-04T01:21:26.328Z,3.93
2017-12-04T01:23:54.196Z,4.30
2017-12-04T01:26:22.109Z,6.80
2017-12-04T01:28:49.968Z,3.57
2017-12-04T01:31:17.842Z,3.40
2017-12-04T01:33:45.717Z,3.93
2017-12-04T01:36:13.571Z,3.20
2017-12-04T01:38:41.437Z,4.80
2017-12-04T01:41:09.344Z,3.93
2017-12-04T01:43:37.203Z,3.73
2017-12-04T01:46:05.045Z,4.83
2017-12-04T01:48:32.907Z,4.47
2017-12-04T01:51:00.791Z,3.73
2017-12-04T01:53:28.651Z,3.57
2017-12-04T01:55:56.510Z,3.60
2017-12-04T01:58:24.361Z,3.63
2017-12-04T02:00:52.201Z,3.90
2017-12-04T02:03:20.072Z,3.57
2017-12-04T02:05:47.919Z,3.60
2017-12-04T02:08:15.757Z,3.80
2017-12-04T02:10:43.612Z,4.87
2017-12-04T02:13:11.445Z,4.70
2017-12-04T02:15:39.328Z,4.03
2017-12-04T02:18:07.161Z,4.10
2017-12-04T02:20:35.085Z,5.60
2017-12-04T02:23:02.952Z,3.50
2017-12-04T02:25:30.791Z,5.40
2017-12-04T02:27:58.658Z,3.57
2017-12-04T02:30:26.513Z,3.20
2017-12-04T02:32:54.385Z,4.67
2017-12-04T02:35:22.281Z,4.37
2017-12-04T02:37:50.124Z,3.10
2017-12-04T02:40:17.989Z,3.20
2017-12-04T02:42:45.861Z,3.57
2017-12-04T02:45:13.737Z,3.73
2017-12-04T02:47:41.624Z,4.00
2017-12-04T02:50:09.478Z,3.83
2017-12-04T02:52:37.360Z,4.27
2017-12-04T02:55:05.252Z,3.47
2017-12-04T02:57:41.207Z,4.50
2017-12-04T03:00:09.114Z,4.50
2017-12-04T03:02:36.948Z,3.27
2017-12-04T03:05:04.808Z,4.10
2017-12-04T03:07:32.670Z,4.77
2017-12-04T03:10:00.537Z,5.77
2017-12-04T03:12:28.429Z,5.10
2017-12-04T03:14:56.303Z,4.63
2017-12-04T03:17:24.162Z,4.30
2017-12-04T03:19:52.025Z,4.80
2017-12-04T03:22:19.873Z,5.40
2017-12-04T03:24:47.779Z,4.43
2017-12-04T03:30:10.764Z,4.30
2017-12-04T03:32:38.654Z,3.73
2017-12-04T03:35:06.509Z,4.90
2017-12-04T03:37:34.364Z,4.30
2017-12-04T03:40:02.230Z,4.50
2017-12-04T03:42:30.113Z,4.83
2017-12-04T03:44:57.972Z,3.80
2017-12-04T03:47:25.840Z,4.20
2017-12-04T03:49:53.695Z,4.17
2017-12-04T03:52:21.538Z,3.90
2017-12-04T03:54:49.386Z,4.50
2017-12-04T03:57:17.311Z,3.20
2017-12-04T03:59:45.237Z,4.90
2017-12-04T04:02:13.145Z,3.90
2017-12-04T04:04:40.990Z,4.83
2017-12-04T04:07:08.857Z,3.40
2017-12-04T04:09:36.725Z,4.47
2017-12-04T04:12:04.589Z,3.50
2017-12-04T04:14:32.461Z,3.10
2017-12-04T04:17:06.657Z,3.13
2017-12-04T04:19:34.500Z,3.67
2017-12-04T04:22:02.340Z,3.30
2017-12-04T04:24:30.236Z,3.27
2017-12-04T04:26:58.075Z,3.87
2017-12-04T04:29:25.944Z,2.90
2017-12-04T04:31:53.772Z,2.90
2017-12-04T04:34:21.669Z,2.77
2017-12-04T04:36:49.536Z,2.70
2017-12-04T04:39:17.400Z,4.03
2017-12-04T04:41:45.272Z,4.47
2017-12-04T04:44:13.156Z,3.53
2017-12-04T04:46:41.064Z,3.10
2017-12-04T04:49:08.929Z,3.63
2017-12-04T04:51:36.808Z,4.10
2017-12-04T04:54:04.697Z,3.25
2017-12-04T04:56:32.663Z,4.10
2017-12-04T04:59:00.620Z,3.23
2017-12-04T05:01:28.478Z,3.57
2017-12-04T05:03:56.381Z,2.50
2017-12-04T05:06:24.267Z,3.20
2017-12-04T05:08:52.171Z,3.50
2017-12-04T05:11:20.024Z,3.53
2017-12-04T05:13:47.891Z,3.50
2017-12-04T05:16:15.746Z,3.20
2017-12-04T05:21:39.865Z,4.83
2017-12-04T05:24:07.728Z,3.50
2017-12-04T05:26:35.624Z,3.33
2017-12-04T05:29:03.518Z,3.20
2017-12-04T05:31:31.364Z,3.37
2017-12-04T05:33:59.221Z,3.40
2017-12-04T05:36:27.096Z,3.73
2017-12-04T05:38:55.017Z,3.63
2017-12-04T05:41:22.923Z,4.18
2017-12-04T05:43:50.843Z,3.50
2017-12-04T05:46:18.769Z,3.97
2017-12-04T05:48:53.472Z,3.87
2017-12-04T05:51:21.365Z,3.50
2017-12-04T05:53:49.233Z,3.43
2017-12-04T05:56:17.140Z,3.40
2017-12-04T05:58:45.028Z,3.37
2017-12-04T06:01:12.876Z,4.07
2017-12-04T06:03:40.839Z,4.07
2017-12-04T06:06:08.713Z,3.73
2017-12-04T06:08:36.572Z,4.20
2017-12-04T06:11:04.496Z,4.00
2017-12-04T06:13:32.392Z,4.20
2017-12-04T06:16:00.256Z,3.90
2017-12-04T06:18:34.777Z,3.13
2017-12-04T06:21:02.637Z,4.50
2017-12-04T06:23:30.481Z,4.30
2017-12-04T06:25:58.351Z,5.37
2017-12-04T06:28:26.232Z,3.80
2017-12-04T06:30:54.149Z,3.53
2017-12-04T06:33:22.010Z,3.57
2017-12-04T06:35:49.880Z,4.00
2017-12-04T06:38:17.767Z,3.60
2017-12-04T06:40:45.630Z,3.40
2017-12-04T06:43:13.477Z,3.77
2017-12-04T06:45:41.340Z,4.47
2017-12-04T06:48:09.223Z,5.27
2017-12-04T06:50:37.105Z,5.07
2017-12-04T06:53:04.968Z,4.00
2017-12-04T06:55:32.853Z,4.07
2017-12-04T06:58:00.681Z,4.67
2017-12-04T07:00:28.526Z,4.37
2017-12-04T07:05:51.247Z,3.90
2017-12-04T07:08:19.068Z,4.00
2017-12-04T07:10:46.951Z,3.17
2017-12-04T07:13:14.779Z,4.20
2017-12-04T07:15:42.621Z,4.83
2017-12-04T07:18:10.509Z,3.67
2017-12-04T07:20:38.392Z,4.57
2017-12-04T07:23:06.285Z,3.67
2017-12-04T07:25:34.127Z,4.43
2017-12-04T07:28:01.976Z,4.77
2017-12-04T07:30:29.839Z,3.92
2017-12-04T07:32:57.691Z,4.87
2017-12-04T07:35:25.541Z,4.47
2017-12-04T07:37:53.357Z,4.30
2017-12-04T07:40:21.209Z,4.47
2017-12-04T07:42:49.036Z,3.50
2017-12-04T07:45:16.888Z,3.80
2017-12-04T07:47:51.478Z,2.90
2017-12-04T07:50:19.297Z,3.13
2017-12-04T07:52:47.193Z,3.60
2017-12-04T07:55:15.056Z,4.00
2017-12-04T07:57:42.897Z,4.25
2017-12-04T08:00:10.734Z,4.00
2017-12-04T08:02:38.605Z,4.40
2017-12-04T08:05:06.451Z,5.03
2017-12-04T08:07:34.286Z,6.47
2017-12-04T08:10:02.462Z,4.50
2017-12-04T08:12:30.357Z,4.73
2017-12-04T08:14:58.206Z,4.90
2017-12-04T08:17:26.068Z,4.30
2017-12-04T08:19:53.985Z,3.73
2017-12-04T08:22:21.899Z,5.07
2017-12-04T08:24:49.744Z,6.67
2017-12-04T08:27:17.572Z,4.83
2017-12-04T08:29:45.433Z,4.67
2017-12-04T08:32:13.285Z,4.80
2017-12-04T08:34:41.184Z,4.60
2017-12-04T08:37:09.020Z,4.30
2017-12-04T08:39:36.890Z,5.30
2017-12-04T08:42:04.752Z,4.40
2017-12-04T08:44:32.620Z,3.47
2017-12-04T08:47:00.493Z,4.50
2017-12-04T08:49:28.344Z,5.33
2017-12-04T08:51:56.168Z,3.87
2017-12-04T08:54:23.974Z,3.60
2017-12-04T08:56:58.805Z,3.97
2017-12-04T08:59:26.653Z,3.93
2017-12-04T09:01:54.505Z,5.67
2017-12-04T09:04:22.389Z,5.13
2017-12-04T09:09:38.313Z,5.10
2017-12-04T09:12:06.168Z,5.80
2017-12-04T09:14:34.049Z,5.00
2017-12-04T09:17:08.775Z,5.23
2017-12-04T09:19:36.626Z,4.53
2017-12-04T09:22:04.480Z,4.20
2017-12-04T09:24:32.326Z,4.83
2017-12-04T09:27:13.275Z,4.23
2017-12-04T09:29:41.117Z,4.83
2017-12-04T09:32:09.004Z,4.20
2017-12-04T09:34:36.853Z,5.03
2017-12-04T09:37:04.721Z,4.40
2017-12-04T09:39:32.597Z,3.70
2017-12-04T09:42:00.456Z,5.07
2017-12-04T09:44:28.303Z,4.70
2017-12-04T09:47:02.848Z,4.70
2017-12-04T09:49:30.741Z,5.43
2017-12-04T09:51:58.581Z,3.40
2017-12-04T09:54:26.448Z,3.90
2017-12-04T09:56:54.321Z,3.10
2017-12-04T09:59:22.182Z,3.13
2017-12-04T10:01:50.020Z,5.40
2017-12-04T10:04:17.903Z,3.50
2017-12-04T10:09:40.704Z,2.93
2017-12-04T10:12:08.554Z,4.60
2017-12-04T10:14:36.428Z,4.80
2017-12-04T10:17:10.901Z,3.43
2017-12-04T10:19:38.833Z,2.97
2017-12-04T10:22:06.699Z,3.73
2017-12-04T10:24:34.576Z,3.77
2017-12-04T10:27:02.445Z,3.60
2017-12-04T10:29:30.283Z,3.40
2017-12-04T10:31:58.176Z,3.03
2017-12-04T10:34:26.020Z,3.30
2017-12-04T10:36:53.887Z,3.33
2017-12-04T10:39:21.794Z,2.57
2017-12-04T10:41:49.639Z,2.90
2017-12-04T10:44:17.488Z,3.90
2017-12-04T10:46:45.316Z,2.70
2017-12-04T10:49:13.141Z,3.63
2017-12-04T10:51:41.014Z,3.63
2017-12-04T10:54:08.854Z,3.50
2017-12-04T10:56:36.724Z,3.00
2017-12-04T10:59:04.615Z,4.20
2017-12-04T11:01:32.466Z,2.20
2017-12-04T11:04:00.333Z,2.53
2017-12-04T11:06:28.209Z,5.80
2017-12-04T11:08:56.040Z,3.50
2017-12-04T11:11:23.850Z,3.87
2017-12-04T11:13:51.710Z,4.10
2017-12-04T11:16:19.625Z,3.17
2017-12-04T11:18:47.488Z,5.07
2017-12-04T11:21:15.317Z,4.80
2017-12-04T11:23:43.159Z,4.53
2017-12-04T11:26:11.012Z,4.57
2017-12-04T11:28:38.895Z,4.00
2017-12-04T11:31:06.784Z,4.10
2017-12-04T11:33:34.674Z,3.43
2017-12-04T11:36:02.510Z,4.53
2017-12-04T11:38:37.165Z,3.37
2017-12-04T11:41:05.057Z,2.90
2017-12-04T11:43:32.945Z,2.63
2017-12-04T11:46:00.828Z,2.90
2017-12-04T11:48:28.726Z,3.67
2017-12-04T11:50:56.591Z,4.00
2017-12-04T11:53:24.431Z,4.37
2017-12-04T11:55:52.297Z,3.97
2017-12-04T11:58:20.171Z,3.33
2017-12-04T12:00:48.004Z,4.33
2017-12-04T12:03:15.868Z,2.90
2017-12-04T12:05:43.754Z,2.63
2017-12-04T12:08:11.597Z,3.80
2017-12-04T12:10:39.422Z,3.37
2017-12-04T12:13:07.302Z,3.00
2017-12-04T12:15:35.143Z,2.77
2017-12-04T12:18:03.008Z,3.40
2017-12-04T12:20:30.925Z,4.23
2017-12-04T12:22:58.797Z,3.13
2017-12-04T12:25:26.616Z,2.33
2017-12-04T12:27:54.469Z,2.57
2017-12-04T12:30:22.318Z,4.87
2017-12-04T12:32:50.196Z,3.53
2017-12-04T12:35:18.073Z,4.23
2017-12-04T12:37:52.022Z,2.80
2017-12-04T12:40:20.617Z,3.00
2017-12-04T12:42:48.437Z,2.90
2017-12-04T12:45:16.288Z,3.93
2017-12-04T12:47:50.231Z,2.10
2017-12-04T12:50:18.077Z,2.50
2017-12-04T12:52:45.912Z,2.93
2017-12-04T12:55:13.773Z,2.67
2017-12-04T13:00:41.293Z,3.00
2017-12-04T13:03:09.140Z,2.30
2017-12-04T13:05:36.961Z,6.87
2017-12-04T13:08:04.798Z,2.97
2017-12-04T13:10:32.636Z,3.43
2017-12-04T13:13:00.476Z,3.50
2017-12-04T13:15:28.322Z,2.63
2017-12-04T13:17:56.173Z,2.20
2017-12-04T13:20:24.027Z,2.73
2017-12-04T13:22:51.899Z,3.50
2017-12-04T13:25:19.762Z,2.73
2017-12-04T13:27:47.604Z,2.80
2017-12-04T13:30:15.469Z,2.40
2017-12-04T13:32:49.308Z,3.03
2017-12-04T13:35:23.248Z,3.50
2017-12-04T13:37:51.062Z,2.87
2017-12-04T13:40:18.903Z,3.27
2017-12-04T13:42:46.745Z,2.70
2017-12-04T13:45:14.585Z,3.60
2017-12-04T13:50:47.063Z,4.97
2017-12-04T13:53:14.924Z,3.23
2017-12-04T13:55:42.766Z,2.50
2017-12-04T13:58:10.600Z,3.33
2017-12-04T14:00:38.442Z,3.60
2017-12-04T14:03:06.288Z,3.50
2017-12-04T14:05:34.132Z,2.90
2017-12-04T14:08:01.965Z,2.53
2017-12-04T14:10:29.795Z,3.10
2017-12-04T14:12:57.635Z,3.00
2017-12-04T14:15:25.460Z,3.80
2017-12-04T14:17:53.324Z,4.50
2017-12-04T14:20:21.185Z,3.33
2017-12-04T14:22:49.028Z,3.70
2017-12-04T14:25:16.856Z,2.63
2017-12-04T14:27:51.071Z,3.23
2017-12-04T14:30:18.897Z,2.60
2017-12-04T14:32:46.769Z,4.10
2017-12-04T14:35:14.629Z,2.90
2017-12-04T14:37:42.456Z,2.80
2017-12-04T14:40:10.369Z,3.40
2017-12-04T14:42:38.269Z,2.53
2017-12-04T14:45:06.137Z,2.87
2017-12-04T14:47:33.984Z,3.60
2017-12-04T14:50:01.821Z,3.33
2017-12-04T14:52:29.660Z,4.40
2017-12-04T14:54:57.520Z,3.80
2017-12-04T14:57:25.393Z,3.30
2017-12-04T14:59:53.271Z,3.70
2017-12-04T15:02:21.131Z,3.77
2017-12-04T15:04:48.972Z,3.27
2017-12-04T15:07:16.839Z,4.53
2017-12-04T15:09:45.444Z,3.60
2017-12-04T15:12:13.293Z,3.63
2017-12-04T15:14:41.140Z,3.30
2017-12-04T15:20:09.441Z,2.97
2017-12-04T15:22:37.293Z,2.80
2017-12-04T15:25:05.219Z,2.63
2017-12-04T15:27:33.091Z,2.60
2017-12-04T15:30:00.941Z,3.40
2017-12-04T15:32:28.821Z,3.37
2017-12-04T15:34:56.659Z,4.70
2017-12-04T15:40:11.904Z,3.53
2017-12-04T15:42:39.756Z,2.80
2017-12-04T15:45:07.636Z,3.03
2017-12-04T15:47:36.240Z,3.57
2017-12-04T15:50:04.090Z,3.37
2017-12-04T15:52:31.944Z,4.60
2017-12-04T15:54:59.792Z,3.57
2017-12-04T15:57:27.672Z,4.20
2017-12-04T15:59:55.520Z,5.20
2017-12-04T16:02:23.365Z,3.90
2017-12-04T16:04:51.228Z,3.90
2017-12-04T16:07:19.124Z,3.13
2017-12-04T16:09:46.961Z,3.93
2017-12-04T16:12:14.811Z,4.70
2017-12-04T16:14:42.697Z,11.23
2017-12-04T16:17:10.639Z,5.10
2017-12-04T16:19:38.507Z,5.20
2017-12-04T16:22:06.349Z,5.50
2017-12-04T16:24:34.216Z,4.23
2017-12-04T16:27:02.085Z,4.30
2017-12-04T16:29:29.956Z,3.57
2017-12-04T16:31:57.767Z,4.57
2017-12-04T16:34:25.727Z,3.57
2017-12-04T16:36:53.605Z,3.90
2017-12-04T16:39:21.481Z,3.53
2017-12-04T16:41:49.341Z,3.77
2017-12-04T16:44:17.229Z,3.30
2017-12-04T16:46:45.074Z,4.40
2017-12-04T16:49:12.922Z,5.33
2017-12-04T16:51:40.748Z,3.73
2017-12-04T16:54:08.565Z,6.43
2017-12-04T16:56:36.504Z,5.13
2017-12-04T16:59:04.371Z,4.40
2017-12-04T17:01:32.293Z,4.50
2017-12-04T17:04:00.137Z,4.47
2017-12-04T17:06:28.024Z,4.53
2017-12-04T17:08:55.891Z,3.90
2017-12-04T17:11:23.757Z,4.90
2017-12-04T17:13:51.660Z,4.77
2017-12-04T17:16:19.493Z,6.10
2017-12-04T17:18:47.344Z,3.97
2017-12-04T17:21:15.194Z,4.30
2017-12-04T17:23:43.023Z,3.77
2017-12-04T17:26:10.852Z,3.97
2017-12-04T17:28:38.714Z,4.17
2017-12-04T17:31:06.541Z,3.47
2017-12-04T17:33:34.412Z,3.57
2017-12-04T17:36:02.260Z,3.30
2017-12-04T17:38:30.089Z,4.63
2017-12-04T17:40:57.936Z,3.83
2017-12-04T17:43:25.800Z,3.87
2017-12-04T17:45:53.649Z,3.80
2017-12-04T17:48:21.539Z,4.30
2017-12-04T17:50:49.384Z,4.37
2017-12-04T17:53:17.232Z,4.10
2017-12-04T17:55:45.117Z,4.10
2017-12-04T17:58:18.993Z,3.70
2017-12-04T18:00:46.891Z,3.40
2017-12-04T18:03:14.758Z,3.80
2017-12-04T18:05:42.629Z,3.90
2017-12-04T18:08:17.078Z,4.80
2017-12-04T18:10:44.946Z,5.30
2017-12-04T18:13:12.804Z,6.40
2017-12-04T18:15:40.687Z,5.53
2017-12-04T18:18:08.559Z,4.60
2017-12-04T18:20:36.443Z,5.77
2017-12-04T18:23:04.317Z,4.50
2017-12-04T18:25:32.184Z,5.17
2017-12-04T18:28:00.037Z,6.23
2017-12-04T18:30:27.905Z,4.83
2017-12-04T18:32:55.791Z,4.60
2017-12-04T18:35:23.636Z,4.30
2017-12-04T18:37:51.462Z,4.20
2017-12-04T18:40:19.330Z,5.33
2017-12-04T18:42:47.221Z,4.70
2017-12-04T18:45:15.098Z,6.30
2017-12-04T18:47:42.974Z,5.83
2017-12-04T18:50:10.845Z,4.83
2017-12-04T18:52:38.707Z,4.10
2017-12-04T18:55:06.557Z,4.73
2017-12-04T18:57:34.442Z,6.03
2017-12-04T19:00:02.263Z,4.63
2017-12-04T19:02:30.154Z,5.70
2017-12-04T19:04:58.025Z,4.77
2017-12-04T19:07:25.857Z,4.60
2017-12-04T19:09:53.698Z,4.90
2017-12-04T19:12:21.564Z,4.77
2017-12-04T19:14:49.417Z,5.63
2017-12-04T19:17:23.839Z,4.77
2017-12-04T19:19:51.693Z,5.10
2017-12-04T19:22:19.609Z,6.00
2017-12-04T19:24:47.472Z,5.40
2017-12-04T19:27:15.336Z,4.40
2017-12-04T19:29:43.202Z,5.60
2017-12-04T19:32:11.048Z,5.13
2017-12-04T19:34:38.896Z,4.80
2017-12-04T19:37:06.732Z,4.70
2017-12-04T19:39:34.645Z,5.70
2017-12-04T19:42:02.500Z,5.73
2017-12-04T19:44:35.890Z,5.60
2017-12-04T19:47:03.776Z,4.73
2017-12-04T19:49:31.638Z,5.33
2017-12-04T19:51:59.471Z,4.57
2017-12-04T19:54:27.351Z,5.50
2017-12-04T19:56:55.229Z,5.43
2017-12-04T19:59:23.072Z,5.80
2017-12-04T20:01:50.912Z,6.72
2017-12-04T20:04:18.741Z,5.63
2017-12-04T20:06:46.601Z,5.83
2017-12-04T20:09:14.454Z,6.60
2017-12-04T20:11:42.316Z,6.80
2017-12-04T20:14:10.161Z,5.50
2017-12-04T20:16:37.997Z,7.43
2017-12-04T20:19:05.881Z,6.73
2017-12-04T20:21:33.749Z,5.70
2017-12-04T20:24:01.675Z,8.60
2017-12-04T20:26:29.541Z,7.05
2017-12-04T20:28:57.376Z,7.57
2017-12-04T20:31:25.236Z,7.17
2017-12-04T20:33:53.114Z,5.50
2017-12-04T20:36:20.984Z,6.63
2017-12-04T20:38:54.879Z,7.97
2017-12-04T20:41:22.745Z,7.77
2017-12-04T20:43:50.620Z,7.97
2017-12-04T20:46:18.481Z,10.60
2017-12-04T20:48:52.725Z,14.07
2017-12-04T20:51:20.590Z,8.23
2017-12-04T20:53:48.436Z,8.87
2017-12-04T20:56:16.293Z,9.73
2017-12-04T20:58:44.156Z,8.07
2017-12-04T21:01:11.997Z,9.57
2017-12-04T21:03:39.891Z,9.17
2017-12-04T21:06:07.780Z,9.40
2017-12-04T21:08:41.836Z,8.77
2017-12-04T21:11:15.844Z,8.57
2017-12-04T21:13:49.901Z,11.50
2017-12-04T21:16:23.858Z,8.53
2017-12-04T21:21:39.190Z,9.27
2017-12-04T21:24:07.016Z,8.43
2017-12-04T21:26:34.881Z,8.13
2017-12-04T21:29:02.747Z,8.53
2017-12-04T21:31:30.613Z,7.00
2017-12-04T21:33:58.452Z,10.20
2017-12-04T21:36:26.384Z,8.70
2017-12-04T21:38:54.232Z,7.77
2017-12-04T21:41:22.096Z,7.97
2017-12-04T21:43:49.948Z,8.30
2017-12-04T21:46:17.805Z,8.40
2017-12-04T21:48:45.680Z,9.23
2017-12-04T21:51:13.537Z,8.30
2017-12-04T21:53:41.369Z,6.50
2017-12-04T21:56:09.220Z,8.50
2017-12-04T21:58:43.628Z,8.67
2017-12-04T22:01:11.493Z,8.75
2017-12-04T22:03:39.332Z,10.07
2017-12-04T22:06:07.185Z,8.60
2017-12-04T22:08:41.169Z,7.73
2017-12-04T22:11:09.070Z,8.70
2017-12-04T22:13:36.948Z,7.73
2017-12-04T22:16:04.802Z,10.32
2017-12-04T22:18:32.661Z,7.97
2017-12-04T22:21:00.498Z,9.17
2017-12-04T22:23:28.344Z,9.00
2017-12-04T22:25:56.187Z,11.90
2017-12-04T22:28:31.093Z,10.50
2017-12-04T22:30:58.932Z,9.03
2017-12-04T22:33:26.800Z,8.50
2017-12-04T22:35:54.739Z,10.13
2017-12-04T22:38:22.608Z,7.22
2017-12-04T22:40:50.542Z,9.97
2017-12-04T22:43:18.396Z,10.77
2017-12-04T22:45:46.299Z,7.37
2017-12-04T22:48:14.185Z,10.13
2017-12-04T22:50:42.053Z,10.00
2017-12-04T22:53:10.684Z,10.53
2017-12-04T22:55:38.534Z,10.20
2017-12-04T22:58:06.415Z,10.10
2017-12-04T23:00:34.299Z,8.67
2017-12-04T23:03:02.148Z,8.87
2017-12-04T23:05:30.000Z,10.90
2017-12-04T23:08:06.410Z,5.53
2017-12-04T23:10:34.262Z,9.47
2017-12-04T23:13:02.112Z,6.37
2017-12-04T23:15:29.974Z,7.50
2017-12-04T23:17:57.825Z,7.00
2017-12-04T23:20:25.709Z,9.03
2017-12-04T23:22:53.629Z,8.57
2017-12-04T23:25:21.501Z,6.90
2017-12-04T23:27:56.064Z,6.70
2017-12-04T23:30:23.937Z,6.90
2017-12-04T23:32:51.785Z,3.90
2017-12-04T23:35:19.596Z,5.40
2017-12-04T23:37:47.466Z,4.77
2017-12-04T23:40:15.433Z,6.73
2017-12-04T23:42:43.297Z,5.90
2017-12-04T23:45:11.167Z,5.97
2017-12-04T23:47:39.015Z,6.40
2017-12-04T23:50:06.904Z,6.33
2017-12-04T23:52:34.762Z,6.80
2017-12-04T23:55:02.637Z,6.23
2017-12-04T23:57:30.483Z,6.50
2017-12-04T23:59:58.373Z,6.00
